Time;durP1;ratioP1;P1;durP2;ratioP2;P2;SDS_P1;SDS_P2;PMS_P1;PMS_P2;Temp;Humidity;BMP_temperature;BMP_pressure;BME280_temperature;BME280_humidity;BME280_pressure;Samples;Min_cycle;Max_cycle;Signal;HPM_P1;HPM_P2
2022/10/12 00:01:19;;;;;;;5.00;1.65;;;9.60;79.30;;;;;;5093955;28;20027;-35
2022/10/12 00:03:45;;;;;;;5.13;1.85;;;9.60;79.30;;;;;;5093875;28;20031;-34
2022/10/12 00:06:19;;;;;;;4.75;1.70;;;9.60;79.40;;;;;;5093688;28;20071;-35
2022/10/12 00:08:45;;;;;;;8.68;2.13;;;9.60;79.40;;;;;;5093807;28;20051;-34
2022/10/12 00:11:14;;;;;;;6.00;2.10;;;9.60;79.30;;;;;;5094086;28;20035;-33
2022/10/12 00:13:40;;;;;;;5.07;1.80;;;9.60;79.30;;;;;;5093831;28;20546;-35
2022/10/12 00:16:08;;;;;;;5.78;2.13;;;9.60;79.30;;;;;;5093984;28;20134;-34
2022/10/12 00:18:34;;;;;;;7.93;1.80;;;9.60;79.30;;;;;;5094034;28;20032;-33
2022/10/12 00:21:05;;;;;;;7.15;1.95;;;9.60;79.30;;;;;;5093582;28;20031;-35
2022/10/12 00:23:32;;;;;;;7.03;2.10;;;9.60;79.40;;;;;;5093587;28;20020;-33
2022/10/12 00:26:09;;;;;;;8.30;1.90;;;9.60;79.50;;;;;;5093860;28;20016;-35
2022/10/12 00:28:35;;;;;;;5.07;1.70;;;9.60;79.60;;;;;;5093469;28;20028;-34
2022/10/12 00:31:06;;;;;;;7.95;1.77;;;9.50;79.60;;;;;;5093605;28;20028;-33
2022/10/12 00:33:31;;;;;;;6.18;1.70;;;9.60;79.60;;;;;;5093535;28;20451;-35
2022/10/12 00:35:57;;;;;;;4.75;1.88;;;9.50;79.60;;;;;;5075045;28;20070;-34
2022/10/12 00:38:22;;;;;;;7.78;1.83;;;9.50;79.70;;;;;;5093416;28;20093;-34
2022/10/12 00:40:48;;;;;;;8.02;2.10;;;9.50;79.70;;;;;;5093309;28;20028;-34
2022/10/12 00:43:33;;;;;;;4.22;1.70;;;9.50;79.80;;;;;;5093296;28;20328;-34
2022/10/12 00:46:00;;;;;;;7.28;2.05;;;9.50;79.90;;;;;;5093557;28;20035;-35
2022/10/12 00:48:27;;;;;;;4.45;1.90;;;9.40;79.80;;;;;;5093207;28;20051;-34
2022/10/12 00:50:54;;;;;;;6.43;1.80;;;9.40;79.90;;;;;;5093186;28;20024;-35
2022/10/12 00:53:24;;;;;;;5.47;1.80;;;9.40;79.90;;;;;;5074761;28;20379;-35
2022/10/12 00:55:56;;;;;;;9.68;1.90;;;9.40;80.00;;;;;;5093000;28;20032;-35
2022/10/12 00:58:23;;;;;;;7.00;1.92;;;9.40;80.00;;;;;;5092884;28;20412;-34
2022/10/12 01:00:49;;;;;;;7.90;1.90;;;9.40;80.00;;;;;;5092838;28;20048;-35
2022/10/12 01:03:18;;;;;;;5.97;1.95;;;9.30;80.00;;;;;;5074606;28;20039;-34
2022/10/12 01:05:43;;;;;;;5.45;1.63;;;9.30;80.00;;;;;;5092552;28;20051;-35
2022/10/12 01:08:09;;;;;;;7.47;2.05;;;9.30;80.00;;;;;;5093025;28;20428;-35
2022/10/12 01:10:35;;;;;;;7.35;2.17;;;9.30;80.10;;;;;;5092745;28;20038;-33
2022/10/12 01:13:00;;;;;;;7.85;1.92;;;9.30;80.20;;;;;;5093019;28;20024;-35
2022/10/12 01:15:35;;;;;;;5.22;1.88;;;9.30;80.30;;;;;;5092680;28;20034;-34
2022/10/12 01:18:26;;;;;;;7.10;1.88;;;9.20;80.20;;;;;;5092683;28;20106;-38
2022/10/12 01:20:58;;;;;;;5.65;1.90;;;9.20;80.30;;;;;;5092678;28;20507;-35
2022/10/12 01:23:41;;;;;;;3.92;1.77;;;9.20;80.30;;;;;;5092851;28;20016;-35
2022/10/12 01:26:18;;;;;;;5.30;1.85;;;9.20;80.40;;;;;;5092787;28;20455;-34
2022/10/12 01:28:53;;;;;;;5.00;1.98;;;9.20;80.40;;;;;;5092478;28;20020;-35
2022/10/12 01:32:05;;;;;;;7.18;2.25;;;9.10;80.40;;;;;;5092410;28;20467;-35
2022/10/12 01:34:38;;;;;;;5.22;1.77;;;9.10;80.50;;;;;;5092098;28;20618;-35
2022/10/12 01:37:15;;;;;;;4.72;1.80;;;9.10;80.50;;;;;;5092206;28;20016;-35
2022/10/12 01:39:48;;;;;;;5.47;1.80;;;9.10;80.50;;;;;;5092548;28;20035;-33
2022/10/12 01:42:20;;;;;;;5.72;2.10;;;9.20;80.50;;;;;;5092492;28;20414;-35
2022/10/12 01:44:45;;;;;;;7.97;2.00;;;9.10;81.10;;;;;;5092470;28;20371;-33
2022/10/12 01:47:11;;;;;;;7.80;2.10;;;9.10;80.40;;;;;;5092209;28;20020;-36
2022/10/12 01:49:37;;;;;;;5.97;1.85;;;9.10;80.40;;;;;;5092235;28;20706;-35
2022/10/12 01:52:26;;;;;;;8.07;1.88;;;9.10;80.50;;;;;;5092222;28;20100;-35
2022/10/12 01:54:56;;;;;;;4.93;1.77;;;9.10;81.20;;;;;;5092147;28;20371;-35
2022/10/12 01:57:43;;;;;;;7.82;2.13;;;9.10;80.60;;;;;;5092024;28;20027;-34
2022/10/12 02:00:14;;;;;;;7.28;2.03;;;9.10;80.70;;;;;;5091783;28;20035;-35
2022/10/12 02:02:49;;;;;;;5.38;1.63;;;9.10;80.70;;;;;;5091689;28;20375;-35
2022/10/12 02:05:23;;;;;;;6.72;1.70;;;9.10;80.80;;;;;;5091610;28;20059;-34
2022/10/12 02:08:18;;;;;;;5.85;1.77;;;9.00;80.80;;;;;;5091670;28;20020;-35
2022/10/12 02:10:55;;;;;;;4.07;1.70;;;9.10;80.80;;;;;;5091740;28;20035;-34
2022/10/12 02:13:24;;;;;;;5.28;1.73;;;9.10;80.70;;;;;;5091976;28;20028;-35
2022/10/12 02:15:50;;;;;;;5.75;1.60;;;9.10;80.70;;;;;;5091650;28;20030;-35
2022/10/12 02:18:20;;;;;;;4.75;1.80;;;9.10;80.80;;;;;;5091719;28;20032;-35
2022/10/12 02:20:50;;;;;;;6.05;1.50;;;9.10;80.80;;;;;;5091582;28;20020;-34
2022/10/12 02:23:17;;;;;;;6.93;1.50;;;9.10;80.80;;;;;;5091749;28;20069;-34
2022/10/12 02:25:44;;;;;;;6.60;1.60;;;9.10;81.00;;;;;;5091572;28;20024;-34
2022/10/12 02:28:15;;;;;;;9.43;1.83;;;9.00;80.80;;;;;;5091444;28;20024;-35
2022/10/12 02:30:51;;;;;;;8.50;1.95;;;9.00;80.90;;;;;;5091277;28;20024;-35
2022/10/12 02:33:50;;;;;;;3.70;1.48;;;9.10;80.90;;;;;;5091260;28;20028;-35
2022/10/12 02:36:24;;;;;;;7.78;1.83;;;9.00;81.00;;;;;;5065249;28;20438;-35
2022/10/12 02:39:01;;;;;;;7.35;1.75;;;9.00;80.90;;;;;;5091572;28;20101;-35
2022/10/12 02:41:36;;;;;;;6.07;1.52;;;9.00;80.90;;;;;;5091566;28;20034;-35
2022/10/12 02:44:07;;;;;;;6.13;1.45;;;9.00;80.90;;;;;;5091513;28;20536;-35
2022/10/12 02:46:34;;;;;;;4.25;1.50;;;9.00;81.00;;;;;;5094922;28;20052;-34
2022/10/12 02:49:03;;;;;;;7.68;1.90;;;9.00;80.90;;;;;;5095481;28;20024;-35
2022/10/12 02:51:29;;;;;;;7.22;1.67;;;9.00;80.90;;;;;;5095474;28;20024;-35
2022/10/12 02:53:55;;;;;;;2.88;1.50;;;9.00;80.90;;;;;;5095543;28;20074;-35
2022/10/12 02:56:22;;;;;;;5.25;1.60;;;9.00;81.40;;;;;;5077465;28;20024;-33
2022/10/12 02:58:48;;;;;;;3.85;1.40;;;9.00;80.90;;;;;;5095477;28;20024;-35
2022/10/12 03:01:15;;;;;;;7.65;1.90;;;9.00;81.00;;;;;;5095196;28;20024;-33
2022/10/12 03:03:42;;;;;;;6.40;2.00;;;9.00;81.10;;;;;;5095267;28;20398;-43
2022/10/12 03:06:08;;;;;;;9.65;1.90;;;9.00;81.10;;;;;;5094866;28;20471;-34
2022/10/12 03:08:34;;;;;;;5.47;2.03;;;9.00;81.10;;;;;;5095355;28;20016;-35
2022/10/12 03:11:04;;;;;;;6.80;1.77;;;9.00;81.10;;;;;;5095064;28;20027;-35
2022/10/12 03:13:30;;;;;;;5.93;1.80;;;9.00;81.10;;;;;;5094853;28;20479;-35
2022/10/12 03:16:07;;;;;;;5.40;1.88;;;9.00;81.10;;;;;;5094935;28;20081;-35
2022/10/12 03:18:34;;;;;;;4.45;1.75;;;9.00;81.20;;;;;;5095034;28;20024;-34
2022/10/12 03:21:00;;;;;;;5.88;1.58;;;9.00;81.30;;;;;;5076440;28;20020;-35
2022/10/12 03:23:25;;;;;;;7.53;1.80;;;8.90;81.30;;;;;;5094823;28;20072;-34
2022/10/12 03:25:51;;;;;;;6.80;1.60;;;8.90;81.30;;;;;;5094932;28;20030;-35
2022/10/12 03:28:17;;;;;;;7.00;2.17;;;8.90;81.30;;;;;;5094953;28;20039;-34
2022/10/12 03:30:43;;;;;;;5.93;1.67;;;8.90;81.40;;;;;;5094699;28;20028;-35
2022/10/12 03:33:08;;;;;;;6.07;1.77;;;8.90;81.40;;;;;;5094466;28;20446;-33
2022/10/12 03:35:34;;;;;;;6.03;2.00;;;8.90;81.50;;;;;;5094580;28;20109;-35
2022/10/12 03:37:59;;;;;;;6.07;1.98;;;8.80;81.40;;;;;;5094729;28;20056;-35
2022/10/12 03:40:25;;;;;;;9.75;2.00;;;8.80;81.50;;;;;;5094273;28;20016;-35
2022/10/12 03:42:51;;;;;;;10.90;2.78;;;8.80;81.50;;;;;;5094579;28;20119;-35
2022/10/12 03:45:16;;;;;;;6.82;2.28;;;8.70;81.50;;;;;;5094381;28;20024;-35
2022/10/12 03:47:42;;;;;;;5.68;2.20;;;8.70;81.60;;;;;;5094266;28;20021;-35
2022/10/12 03:50:08;;;;;;;5.28;2.50;;;8.70;81.60;;;;;;5094263;28;20063;-33
2022/10/12 03:52:33;;;;;;;7.30;2.60;;;8.70;81.70;;;;;;5075940;28;20101;-34
2022/10/12 03:54:59;;;;;;;8.10;2.58;;;8.60;81.70;;;;;;5094313;28;20039;-34
2022/10/12 03:57:24;;;;;;;8.77;3.17;;;8.60;81.80;;;;;;5094280;28;20127;-35
2022/10/12 03:59:50;;;;;;;7.82;3.33;;;8.60;81.80;;;;;;5093962;28;20032;-35
2022/10/12 04:02:15;;;;;;;9.57;3.10;;;8.50;81.80;;;;;;5094266;28;20020;-34
2022/10/12 04:04:41;;;;;;;7.50;2.80;;;8.50;81.90;;;;;;5093810;28;20051;-35
2022/10/12 04:07:07;;;;;;;8.18;3.30;;;8.50;81.90;;;;;;5093925;28;20023;-34
2022/10/12 04:09:32;;;;;;;6.97;2.92;;;8.50;82.00;;;;;;5093985;28;20111;-35
2022/10/12 04:11:59;;;;;;;9.70;3.22;;;8.50;82.00;;;;;;5093731;28;20368;-35
2022/10/12 04:14:24;;;;;;;7.47;3.35;;;8.40;81.90;;;;;;5094042;28;20494;-33
2022/10/12 04:16:53;;;;;;;8.90;2.78;;;8.40;82.00;;;;;;5093363;28;20032;-35
2022/10/12 04:19:19;;;;;;;10.57;3.53;;;8.40;82.00;;;;;;5093712;28;20024;-35
2022/10/12 04:21:44;;;;;;;5.97;3.22;;;8.30;82.00;;;;;;5093223;28;20368;-35
2022/10/12 04:24:10;;;;;;;7.38;3.40;;;8.30;82.00;;;;;;5093983;28;20024;-34
2022/10/12 04:26:35;;;;;;;7.82;3.65;;;8.30;82.00;;;;;;5093677;28;20024;-35
2022/10/12 04:29:01;;;;;;;9.32;4.10;;;8.20;82.00;;;;;;5093638;28;20020;-35
2022/10/12 04:31:26;;;;;;;7.32;3.60;;;8.20;82.10;;;;;;5093640;28;20028;-34
2022/10/12 04:33:55;;;;;;;13.10;4.00;;;8.20;82.10;;;;;;5093455;28;20380;-34
2022/10/12 04:36:22;;;;;;;10.15;3.65;;;8.10;82.10;;;;;;5093551;28;20028;-34
2022/10/12 04:38:48;;;;;;;11.25;3.58;;;8.10;82.20;;;;;;5075000;28;20031;-32
2022/10/12 04:41:13;;;;;;;7.88;3.80;;;8.10;82.20;;;;;;5093455;28;20024;-34
2022/10/12 04:43:39;;;;;;;12.32;4.47;;;8.00;82.20;;;;;;5074973;28;20386;-33
2022/10/12 04:46:05;;;;;;;10.52;3.95;;;8.00;82.30;;;;;;5093248;28;20027;-33
2022/10/12 04:48:30;;;;;;;9.27;4.45;;;8.00;82.30;;;;;;5093205;28;20107;-34
2022/10/12 04:50:56;;;;;;;9.48;4.30;;;8.00;82.40;;;;;;5093666;28;20471;-34
2022/10/12 04:53:21;;;;;;;11.98;4.43;;;8.00;82.40;;;;;;5093097;28;20047;-34
2022/10/12 04:55:47;;;;;;;9.35;4.75;;;8.00;82.50;;;;;;5093205;28;20372;-33
2022/10/12 04:58:13;;;;;;;10.70;4.80;;;8.00;82.60;;;;;;5093168;28;20021;-34
2022/10/12 05:00:39;;;;;;;9.25;4.45;;;8.00;82.70;;;;;;5092921;28;20024;-33
2022/10/12 05:03:04;;;;;;;10.70;4.30;;;7.90;82.60;;;;;;5093141;28;20106;-33
2022/10/12 05:05:30;;;;;;;10.50;4.72;;;8.00;82.70;;;;;;5092909;28;20079;-34
2022/10/12 05:07:56;;;;;;;9.93;4.00;;;8.00;82.70;;;;;;5092798;28;20043;-35
2022/10/12 05:10:21;;;;;;;9.07;4.43;;;7.90;82.60;;;;;;5092821;28;20048;-38
2022/10/12 05:12:47;;;;;;;9.43;4.40;;;8.00;82.60;;;;;;5092561;28;20024;-34
2022/10/12 05:15:12;;;;;;;12.55;5.20;;;7.90;82.50;;;;;;5092581;28;20073;-34
2022/10/12 05:17:38;;;;;;;8.10;4.15;;;7.90;82.50;;;;;;5074403;28;20019;-29
2022/10/12 05:20:04;;;;;;;10.25;4.72;;;7.90;82.50;;;;;;5092665;28;20077;-30
2022/10/12 05:22:30;;;;;;;10.88;4.80;;;7.90;82.60;;;;;;5092387;28;20016;-28
2022/10/12 05:24:56;;;;;;;8.63;4.57;;;7.90;82.60;;;;;;5092408;28;20020;-28
2022/10/12 05:27:21;;;;;;;8.15;4.75;;;7.90;82.60;;;;;;5092679;28;20030;-28
2022/10/12 05:29:47;;;;;;;8.05;4.50;;;7.90;82.70;;;;;;5092609;28;20393;-31
2022/10/12 05:32:13;;;;;;;11.25;4.90;;;7.90;82.60;;;;;;5092313;28;20020;-33
2022/10/12 05:34:39;;;;;;;8.77;4.53;;;7.80;82.60;;;;;;5092601;28;20047;-28
2022/10/12 05:37:04;;;;;;;10.57;5.00;;;7.90;82.60;;;;;;5092289;28;20020;-29
2022/10/12 05:39:30;;;;;;;9.75;5.30;;;7.90;82.60;;;;;;5091801;28;20310;-34
2022/10/12 05:41:55;;;;;;;9.23;5.13;;;7.90;82.60;;;;;;5092201;28;20035;-31
2022/10/12 05:44:21;;;;;;;15.77;5.22;;;7.90;82.60;;;;;;5092090;28;20394;-31
2022/10/12 05:46:46;;;;;;;11.43;5.03;;;7.90;82.60;;;;;;5091681;28;20376;-33
2022/10/12 05:49:12;;;;;;;8.43;4.72;;;7.90;82.50;;;;;;5091862;28;20020;-41
2022/10/12 05:51:39;;;;;;;11.07;5.18;;;7.90;82.40;;;;;;5092002;28;20116;-38
2022/10/12 05:54:05;;;;;;;11.38;6.10;;;7.90;82.50;;;;;;5091716;28;20036;-35
2022/10/12 05:56:31;;;;;;;7.97;5.03;;;7.90;82.40;;;;;;5091675;28;20024;-34
2022/10/12 05:58:56;;;;;;;14.27;5.20;;;8.00;82.50;;;;;;5092035;28;20574;-34
2022/10/12 06:01:22;;;;;;;11.05;5.38;;;8.00;82.40;;;;;;5091651;28;20019;-34
2022/10/12 06:03:47;;;;;;;9.15;4.70;;;8.00;82.40;;;;;;5056657;28;20028;-27
2022/10/12 06:06:13;;;;;;;10.75;5.32;;;8.00;82.40;;;;;;5091944;28;20039;-27
2022/10/12 06:08:39;;;;;;;11.93;5.05;;;8.00;82.40;;;;;;5091869;28;20027;-27
2022/10/12 06:11:04;;;;;;;10.93;5.30;;;8.00;82.40;;;;;;5091763;28;20035;-42
2022/10/12 06:13:30;;;;;;;9.63;5.05;;;8.10;82.50;;;;;;5091941;28;20043;-37
2022/10/12 06:15:56;;;;;;;14.52;9.27;;;8.10;82.40;;;;;;5092056;28;20024;-42
2022/10/12 06:18:22;;;;;;;11.13;5.82;;;8.10;82.40;;;;;;5073388;28;20141;-40
2022/10/12 06:20:53;;;;;;;11.65;6.15;;;8.20;82.50;;;;;;5090832;28;20107;-42
2022/10/12 06:23:19;;;;;;;11.25;5.93;;;8.20;82.40;;;;;;5091786;28;20027;-43
2022/10/12 06:25:46;;;;;;;10.77;5.63;;;8.20;82.40;;;;;;5091695;28;20103;-42
2022/10/12 06:28:13;;;;;;;12.48;6.05;;;8.30;82.40;;;;;;5091485;28;20482;-45
2022/10/12 06:30:39;;;;;;;11.10;5.78;;;8.30;82.40;;;;;;5091223;28;20027;-33
2022/10/12 06:33:04;;;;;;;16.48;5.38;;;8.30;82.30;;;;;;5091485;28;20451;-33
2022/10/12 06:35:30;;;;;;;10.02;6.03;;;8.40;82.30;;;;;;5091095;28;20045;-31
2022/10/12 06:37:56;;;;;;;11.90;5.63;;;8.40;82.20;;;;;;5091449;28;20039;-33
2022/10/12 06:40:21;;;;;;;9.38;5.53;;;8.50;82.20;;;;;;5091235;28;20375;-35
2022/10/12 06:42:48;;;;;;;12.52;5.63;;;8.50;82.20;;;;;;5091153;28;20068;-33
2022/10/12 06:45:13;;;;;;;11.45;5.40;;;8.60;82.20;;;;;;5091331;28;20070;-33
2022/10/12 06:47:39;;;;;;;11.02;5.55;;;8.60;82.00;;;;;;5090942;28;20020;-31
2022/10/12 06:50:06;;;;;;;7.90;4.95;;;8.70;82.00;;;;;;5091095;28;20024;-35
2022/10/12 06:52:32;;;;;;;9.50;5.50;;;8.70;82.00;;;;;;5072763;28;20126;-33
2022/10/12 06:54:57;;;;;;;8.73;5.50;;;8.80;82.00;;;;;;5091268;28;20092;-32
2022/10/12 06:57:23;;;;;;;11.65;5.90;;;8.80;81.90;;;;;;5091101;28;20027;-33
2022/10/12 06:59:49;;;;;;;9.25;5.30;;;8.80;81.90;;;;;;5091095;28;20032;-34
2022/10/12 07:02:15;;;;;;;11.15;5.65;;;8.90;81.90;;;;;;5072996;28;20020;-34
2022/10/12 07:04:40;;;;;;;8.15;5.55;;;8.90;81.90;;;;;;5090966;28;20040;-36
2022/10/12 07:07:06;;;;;;;11.70;5.90;;;8.90;81.90;;;;;;5091505;28;20024;-39
2022/10/12 07:09:31;;;;;;;10.00;5.63;;;8.90;81.90;;;;;;5090705;28;20444;-33
2022/10/12 07:11:57;;;;;;;8.65;5.20;;;9.00;81.90;;;;;;5090726;28;20050;-33
2022/10/12 07:14:23;;;;;;;8.50;5.10;;;9.00;81.80;;;;;;5090521;28;20073;-33
2022/10/12 07:16:48;;;;;;;10.80;5.22;;;9.00;81.80;;;;;;5090558;28;20027;-33
2022/10/12 07:19:14;;;;;;;9.82;5.72;;;9.00;81.80;;;;;;5090753;28;20039;-33
2022/10/12 07:21:39;;;;;;;9.50;4.95;;;9.00;81.80;;;;;;5090365;28;20060;-33
2022/10/12 07:24:05;;;;;;;9.45;5.00;;;9.00;81.80;;;;;;5090305;28;20027;-32
2022/10/12 07:26:31;;;;;;;8.88;4.43;;;9.10;81.90;;;;;;5090266;28;20069;-32
2022/10/12 07:28:57;;;;;;;7.72;4.80;;;9.10;81.80;;;;;;5090782;28;20114;-32
2022/10/12 07:31:23;;;;;;;7.60;4.50;;;9.20;81.80;;;;;;5091827;28;20081;-33
2022/10/12 07:33:48;;;;;;;10.77;4.68;;;9.20;81.80;;;;;;5094246;28;20023;-31
2022/10/12 07:36:14;;;;;;;8.70;4.80;;;9.20;81.70;;;;;;5094213;28;20028;-35
2022/10/12 07:38:43;;;;;;;8.70;4.40;;;9.20;81.70;;;;;;5094306;28;20028;-31
2022/10/12 07:41:09;;;;;;;8.70;4.60;;;9.30;81.60;;;;;;5093934;28;20020;-33
2022/10/12 07:43:35;;;;;;;11.02;5.07;;;9.40;81.60;;;;;;5093819;28;20027;-32
2022/10/12 07:46:03;;;;;;;7.90;4.45;;;9.40;81.50;;;;;;5093941;28;20020;-34
2022/10/12 07:48:28;;;;;;;9.75;5.03;;;9.40;81.50;;;;;;5094129;28;20012;-32
2022/10/12 07:50:54;;;;;;;9.52;5.15;;;9.40;81.40;;;;;;5093976;28;20497;-33
2022/10/12 07:53:19;;;;;;;10.25;5.00;;;9.40;81.40;;;;;;5093490;28;20077;-32
2022/10/12 07:55:45;;;;;;;8.07;4.93;;;9.40;81.40;;;;;;5093876;28;20074;-33
2022/10/12 07:58:11;;;;;;;10.43;5.97;;;9.40;81.50;;;;;;5075294;28;20111;-32
2022/10/12 08:00:37;;;;;;;12.65;6.10;;;9.50;81.50;;;;;;5093692;28;20112;-32
2022/10/12 08:03:03;;;;;;;10.57;5.85;;;9.50;81.50;;;;;;5093480;28;20054;-34
2022/10/12 08:05:29;;;;;;;10.25;5.88;;;9.50;81.50;;;;;;5093766;28;20511;-35
2022/10/12 08:07:55;;;;;;;8.63;5.43;;;9.50;81.40;;;;;;5093699;28;20375;-32
2022/10/12 08:10:21;;;;;;;10.77;5.38;;;9.60;81.40;;;;;;5093541;28;20463;-33
2022/10/12 08:12:47;;;;;;;10.38;6.03;;;9.60;81.30;;;;;;5093263;28;20020;-33
2022/10/12 08:15:13;;;;;;;9.68;5.95;;;9.70;81.30;;;;;;5093541;28;20577;-32
2022/10/12 08:17:39;;;;;;;10.23;5.85;;;9.80;81.30;;;;;;5093217;28;20500;-35
2022/10/12 08:20:05;;;;;;;8.98;5.78;;;9.80;81.20;;;;;;5093090;28;20024;-33
2022/10/12 08:22:31;;;;;;;9.63;5.35;;;9.90;81.10;;;;;;5093561;28;20054;-33
2022/10/12 08:24:57;;;;;;;8.25;5.80;;;10.00;81.10;;;;;;5093162;28;20097;-35
2022/10/12 08:27:22;;;;;;;11.30;6.22;;;10.10;81.00;;;;;;5093470;28;20101;-33
2022/10/12 08:29:48;;;;;;;10.15;6.05;;;10.20;80.80;;;;;;5093549;28;20016;-32
2022/10/12 08:32:14;;;;;;;14.45;6.35;;;10.30;80.60;;;;;;5093185;28;20024;-33
2022/10/12 08:34:40;;;;;;;13.80;6.55;;;10.50;80.50;;;;;;5093278;28;20035;-34
2022/10/12 08:37:05;;;;;;;12.02;6.05;;;10.60;80.20;;;;;;5093233;28;20026;-33
2022/10/12 08:39:31;;;;;;;13.80;6.40;;;10.70;80.00;;;;;;5093083;28;20028;-34
2022/10/12 08:42:31;;;;;;;12.15;7.35;;;10.90;79.90;;;;;;5092854;28;20047;-25
2022/10/12 08:45:15;;;;;;;10.18;6.70;;;11.00;79.60;;;;;;5093143;28;20027;-29
2022/10/12 08:47:44;;;;;;;12.50;7.07;;;11.10;79.40;;;;;;5092743;28;20028;-29
2022/10/12 08:50:22;;;;;;;18.77;10.23;;;11.10;79.30;;;;;;5074477;28;20141;-40
2022/10/12 08:52:54;;;;;;;19.35;11.02;;;11.20;79.30;;;;;;5093040;28;20103;-35
2022/10/12 08:55:30;;;;;;;18.10;9.50;;;11.20;79.20;;;;;;5092766;28;20147;-36
2022/10/12 08:57:56;;;;;;;15.70;8.27;;;11.20;79.10;;;;;;5074878;28;20479;-35
2022/10/12 09:00:21;;;;;;;13.35;8.13;;;11.20;79.10;;;;;;5092590;28;20028;-34
2022/10/12 09:03:02;;;;;;;12.93;8.05;;;11.20;79.20;;;;;;5092720;28;20028;-35
2022/10/12 09:05:50;;;;;;;15.80;8.05;;;11.20;79.30;;;;;;5092686;28;20051;-31
2022/10/12 09:08:38;;;;;;;11.85;7.45;;;11.20;79.30;;;;;;5092314;28;20024;-27
2022/10/12 09:11:17;;;;;;;14.38;7.50;;;11.20;79.30;;;;;;5092234;28;20035;-28
2022/10/12 09:14:08;;;;;;;12.55;6.82;;;11.20;79.20;;;;;;5092175;28;20358;-25
2022/10/12 09:16:39;;;;;;;12.63;7.13;;;11.30;79.20;;;;;;5092885;28;20016;-27
2022/10/12 09:19:27;;;;;;;14.50;7.15;;;11.30;79.10;;;;;;5092635;28;20035;-26
2022/10/12 09:21:54;;;;;;;11.73;7.25;;;11.40;79.00;;;;;;5091719;28;20036;-30
2022/10/12 09:24:26;;;;;;;14.70;7.60;;;11.40;78.90;;;;;;5092697;28;20066;-34
2022/10/12 09:26:56;;;;;;;14.85;6.78;;;11.50;78.90;;;;;;5092608;28;20526;-30
2022/10/12 09:29:26;;;;;;;14.23;7.05;;;11.50;78.90;;;;;;5092145;28;20024;-32
2022/10/12 09:32:06;;;;;;;13.10;6.70;;;11.50;78.80;;;;;;5092560;28;20088;-32
2022/10/12 09:34:32;;;;;;;11.02;6.30;;;11.60;78.80;;;;;;5092191;28;20050;-26
2022/10/12 09:37:01;;;;;;;10.38;6.30;;;11.60;78.60;;;;;;5092292;28;20158;-42
2022/10/12 09:39:31;;;;;;;10.85;6.40;;;11.70;78.50;;;;;;5092246;28;20149;-26
2022/10/12 09:41:57;;;;;;;10.10;5.90;;;11.70;78.40;;;;;;5092444;28;20100;-28
2022/10/12 09:44:27;;;;;;;12.35;5.32;;;11.80;78.90;;;;;;5091881;28;20099;-26
2022/10/12 09:47:00;;;;;;;10.60;5.93;;;11.80;78.20;;;;;;5091821;28;20024;-26
2022/10/12 09:49:52;;;;;;;12.02;5.47;;;11.90;78.30;;;;;;5091816;28;20584;-26
2022/10/12 09:52:28;;;;;;;12.07;5.40;;;11.90;77.90;;;;;;5066891;28;20081;-29
2022/10/12 09:54:58;;;;;;;10.50;5.70;;;12.00;77.70;;;;;;5072749;28;20024;-28
2022/10/12 09:57:33;;;;;;;11.32;6.25;;;12.10;77.60;;;;;;5091200;28;20452;-26
2022/10/12 10:00:04;;;;;;;9.52;5.72;;;12.10;77.50;;;;;;5091347;28;20020;-27
2022/10/12 10:02:31;;;;;;;12.60;6.80;;;12.20;77.40;;;;;;5091188;28;20125;-27
2022/10/12 10:05:21;;;;;;;10.68;6.38;;;12.30;77.30;;;;;;5091342;28;20503;-29
2022/10/12 10:07:47;;;;;;;9.73;6.00;;;12.40;77.10;;;;;;5091551;28;20036;-43
2022/10/12 10:10:20;;;;;;;10.35;5.65;;;12.40;77.00;;;;;;5091480;28;20081;-34
2022/10/12 10:12:57;;;;;;;9.20;6.13;;;12.40;76.80;;;;;;5091930;28;20044;-34
2022/10/12 10:15:27;;;;;;;11.30;5.70;;;12.50;76.70;;;;;;5091817;28;20028;-34
2022/10/12 10:17:56;;;;;;;11.93;5.40;;;12.60;76.70;;;;;;5091396;28;20020;-32
2022/10/12 10:20:48;;;;;;;11.13;5.47;;;12.60;76.60;;;;;;5091269;28;20468;-34
2022/10/12 10:23:51;;;;;;;8.52;5.50;;;12.70;76.50;;;;;;5091413;28;20157;-35
2022/10/12 10:26:19;;;;;;;11.38;6.10;;;12.70;76.40;;;;;;5072500;28;20040;-26
2022/10/12 10:28:47;;;;;;;7.60;5.70;;;12.80;76.40;;;;;;5091298;28;20464;-29
2022/10/12 10:31:14;;;;;;;11.88;6.07;;;12.80;76.20;;;;;;5090963;28;20096;-28
2022/10/12 10:33:41;;;;;;;10.07;5.85;;;12.90;76.20;;;;;;5091010;28;20031;-29
2022/10/12 10:36:25;;;;;;;11.88;6.07;;;13.00;76.10;;;;;;5090969;28;20039;-28
2022/10/12 10:39:04;;;;;;;10.32;6.30;;;13.00;75.90;;;;;;5091047;28;20115;-27
2022/10/12 10:41:35;;;;;;;10.32;6.60;;;13.10;75.90;;;;;;5091578;28;20445;-26
2022/10/12 10:44:02;;;;;;;13.25;6.53;;;13.10;75.80;;;;;;5091117;28;20031;-42
2022/10/12 10:46:31;;;;;;;10.60;7.30;;;13.20;75.70;;;;;;5091094;28;20509;-39
2022/10/12 10:49:07;;;;;;;15.18;7.45;;;13.30;75.60;;;;;;5091373;28;20051;-43
2022/10/12 10:51:49;;;;;;;12.93;6.85;;;13.30;75.40;;;;;;5091180;28;20029;-28
2022/10/12 10:54:22;;;;;;;12.27;7.18;;;13.40;75.20;;;;;;5091496;28;20024;-26
2022/10/12 10:56:52;;;;;;;;;;;13.50;75.30;;;;;;5091469;28;20020;-28
2022/10/12 10:59:38;;;;;;;11.77;6.47;;;13.50;75.20;;;;;;5091290;28;19910;-28
2022/10/12 11:02:30;;;;;;;12.00;7.35;;;13.60;75.20;;;;;;5091078;28;20090;-26
2022/10/12 11:05:06;;;;;;;13.68;7.50;;;13.60;75.10;;;;;;5090719;28;20503;-31
2022/10/12 11:07:50;;;;;;;13.35;8.23;;;13.60;75.00;;;;;;5094149;28;20020;-29
2022/10/12 11:10:36;;;;;;;15.23;7.90;;;13.70;74.90;;;;;;5094950;28;20021;-27
2022/10/12 11:13:08;;;;;;;13.95;8.32;;;13.70;75.40;;;;;;5094844;28;20037;-28
2022/10/12 11:15:53;;;;;;;12.57;7.25;;;13.80;74.90;;;;;;5095175;28;20028;-28
2022/10/12 11:18:35;;;;;;;12.93;6.90;;;13.90;74.80;;;;;;5094346;28;20044;-28
2022/10/12 11:21:06;;;;;;;12.75;6.72;;;13.90;74.70;;;;;;5094687;28;20031;-25
2022/10/12 11:23:57;;;;;;;12.93;6.90;;;14.00;74.50;;;;;;5094663;28;20035;-32
2022/10/12 11:26:29;;;;;;;12.50;7.32;;;14.10;74.40;;;;;;5094853;28;20391;-29
2022/10/12 11:28:58;;;;;;;11.82;7.18;;;14.20;74.20;;;;;;5076464;28;20059;-25
2022/10/12 11:31:34;;;;;;;16.30;8.60;;;14.30;73.80;;;;;;5094735;28;20104;-26
2022/10/12 11:34:04;;;;;;;14.90;7.78;;;14.30;73.60;;;;;;5094858;28;20028;-30
2022/10/12 11:36:32;;;;;;;13.27;7.53;;;14.40;73.50;;;;;;5094210;28;20419;-28
2022/10/12 11:39:02;;;;;;;14.27;7.13;;;14.50;73.40;;;;;;5094335;28;20502;-27
2022/10/12 11:41:44;;;;;;;9.73;6.05;;;14.50;73.20;;;;;;5075705;28;20016;-25
2022/10/12 11:44:23;;;;;;;11.82;6.00;;;14.50;73.00;;;;;;5094349;28;20043;-26
2022/10/12 11:47:02;;;;;;;13.57;6.55;;;14.60;72.80;;;;;;5094241;28;20096;-28
2022/10/12 11:49:54;;;;;;;10.35;6.65;;;14.60;72.70;;;;;;5093930;28;20111;-26
2022/10/12 11:52:21;;;;;;;10.90;6.45;;;14.70;72.30;;;;;;5093859;28;20032;-26
2022/10/12 11:55:03;;;;;;;11.93;5.65;;;14.70;72.30;;;;;;5094278;28;20035;-26
2022/10/12 11:57:34;;;;;;;8.68;5.40;;;14.80;72.10;;;;;;5075616;28;20035;-25
2022/10/12 12:00:23;;;;;;;11.35;5.78;;;14.90;71.90;;;;;;5093912;28;20106;-38
2022/10/12 12:02:56;;;;;;;10.95;5.90;;;14.90;71.50;;;;;;5093573;28;20027;-41
2022/10/12 12:05:21;;;;;;;8.25;4.85;;;15.00;71.40;;;;;;5093733;28;20067;-43
2022/10/12 12:07:52;;;;;;;12.00;5.70;;;15.10;71.40;;;;;;5094151;28;20048;-43
2022/10/12 12:10:24;;;;;;;10.45;5.38;;;15.10;71.70;;;;;;5094278;28;20020;-42
2022/10/12 12:13:19;;;;;;;9.13;5.70;;;15.20;70.90;;;;;;5093768;28;20107;-43
2022/10/12 12:15:48;;;;;;;10.57;5.85;;;15.30;70.60;;;;;;5093787;28;20432;-42
2022/10/12 12:18:20;;;;;;;11.43;6.00;;;15.30;70.60;;;;;;5093964;28;20035;-44
2022/10/12 12:20:45;;;;;;;12.35;5.85;;;15.30;70.50;;;;;;5093567;28;20020;-41
2022/10/12 12:23:23;;;;;;;8.77;5.80;;;15.20;70.50;;;;;;5093437;28;20082;-43
2022/10/12 12:26:12;;;;;;;8.95;5.32;;;15.30;70.60;;;;;;5093437;28;20028;-44
2022/10/12 12:28:51;;;;;;;8.25;5.50;;;15.30;70.50;;;;;;5093803;28;20610;-44
2022/10/12 12:31:22;;;;;;;9.70;5.82;;;15.30;70.60;;;;;;5093540;28;20027;-41
2022/10/12 12:34:00;;;;;;;11.63;6.22;;;15.40;70.40;;;;;;5093428;28;20039;-42
2022/10/12 12:36:52;;;;;;;7.28;4.78;;;15.60;70.30;;;;;;5093297;28;20024;-44
2022/10/12 12:39:26;;;;;;;12.07;5.90;;;15.80;69.90;;;;;;5090497;28;20046;-45
2022/10/12 12:41:55;;;;;;;10.70;5.65;;;15.80;69.70;;;;;;5093446;28;20080;-40
2022/10/12 12:44:39;;;;;;;10.70;5.20;;;15.80;69.50;;;;;;5093605;28;20036;-42
2022/10/12 12:47:05;;;;;;;9.82;5.22;;;15.90;69.20;;;;;;5093518;28;20040;-40
2022/10/12 12:49:36;;;;;;;8.13;4.50;;;15.80;69.10;;;;;;5093547;28;20048;-43
2022/10/12 12:52:16;;;;;;;9.20;4.10;;;15.80;69.00;;;;;;5074691;28;20039;-43
2022/10/12 12:55:03;;;;;;;7.20;3.10;;;15.80;68.90;;;;;;5093046;28;20116;-43
2022/10/12 12:58:08;;;;;;;6.65;3.78;;;15.80;68.70;;;;;;5074460;28;20123;-41
2022/10/12 13:00:50;;;;;;;7.00;3.13;;;15.80;68.50;;;;;;5092810;28;20460;-47
2022/10/12 13:03:19;;;;;;;9.20;3.60;;;15.80;68.20;;;;;;5093408;28;20020;-43
2022/10/12 13:06:23;;;;;;;5.70;3.25;;;15.90;68.30;;;;;;5092784;28;20040;-43